sensor_id;sensor_type;location;lat;lon;timestamp;P1;durP1;ratioP1;P2;durP2;ratioP2
2674;SDS011;1347;42.122;24.746;2023-12-20T00:00:37;40.80;;;25.83;;
2674;SDS011;1347;42.122;24.746;2023-12-20T00:03:04;35.73;;;26.20;;
2674;SDS011;1347;42.122;24.746;2023-12-20T00:05:31;39.43;;;25.73;;
2674;SDS011;1347;42.122;24.746;2023-12-20T00:07:58;37.80;;;25.77;;
2674;SDS011;1347;42.122;24.746;2023-12-20T00:10:25;36.40;;;26.03;;
2674;SDS011;1347;42.122;24.746;2023-12-20T00:12:53;39.63;;;27.37;;
2674;SDS011;1347;42.122;24.746;2023-12-20T00:15:20;36.70;;;27.00;;
2674;SDS011;1347;42.122;24.746;2023-12-20T00:17:47;35.33;;;25.97;;
2674;SDS011;1347;42.122;24.746;2023-12-20T00:20:14;37.87;;;25.37;;
2674;SDS011;1347;42.122;24.746;2023-12-20T00:22:41;45.27;;;29.30;;
2674;SDS011;1347;42.122;24.746;2023-12-20T00:25:08;41.20;;;26.80;;
2674;SDS011;1347;42.122;24.746;2023-12-20T00:27:34;47.40;;;29.23;;
2674;SDS011;1347;42.122;24.746;2023-12-20T00:30:03;39.00;;;26.53;;
2674;SDS011;1347;42.122;24.746;2023-12-20T00:32:31;45.07;;;29.77;;
2674;SDS011;1347;42.122;24.746;2023-12-20T00:34:57;46.80;;;29.50;;
2674;SDS011;1347;42.122;24.746;2023-12-20T00:37:24;47.07;;;33.33;;
2674;SDS011;1347;42.122;24.746;2023-12-20T00:39:51;50.17;;;32.50;;
2674;SDS011;1347;42.122;24.746;2023-12-20T00:42:18;43.97;;;31.27;;
2674;SDS011;1347;42.122;24.746;2023-12-20T00:44:45;46.00;;;29.80;;
2674;SDS011;1347;42.122;24.746;2023-12-20T00:47:13;45.30;;;28.63;;
2674;SDS011;1347;42.122;24.746;2023-12-20T00:49:40;40.40;;;27.77;;
2674;SDS011;1347;42.122;24.746;2023-12-20T00:52:07;44.87;;;30.30;;
2674;SDS011;1347;42.122;24.746;2023-12-20T00:54:34;41.60;;;29.63;;
2674;SDS011;1347;42.122;24.746;2023-12-20T00:57:01;46.80;;;26.63;;
2674;SDS011;1347;42.122;24.746;2023-12-20T00:59:27;45.93;;;31.23;;
2674;SDS011;1347;42.122;24.746;2023-12-20T01:01:54;49.00;;;30.80;;
2674;SDS011;1347;42.122;24.746;2023-12-20T01:04:22;39.07;;;28.17;;
2674;SDS011;1347;42.122;24.746;2023-12-20T01:06:49;51.00;;;30.90;;
2674;SDS011;1347;42.122;24.746;2023-12-20T01:09:16;42.07;;;29.40;;
2674;SDS011;1347;42.122;24.746;2023-12-20T01:11:43;43.17;;;29.83;;
2674;SDS011;1347;42.122;24.746;2023-12-20T01:14:11;39.33;;;28.07;;
2674;SDS011;1347;42.122;24.746;2023-12-20T01:16:38;46.07;;;28.50;;
2674;SDS011;1347;42.122;24.746;2023-12-20T01:19:05;43.93;;;28.43;;
2674;SDS011;1347;42.122;24.746;2023-12-20T01:21:33;41.10;;;27.03;;
2674;SDS011;1347;42.122;24.746;2023-12-20T01:24:00;40.20;;;28.20;;
2674;SDS011;1347;42.122;24.746;2023-12-20T01:26:27;30.50;;;23.80;;
2674;SDS011;1347;42.122;24.746;2023-12-20T01:28:54;39.20;;;25.97;;
2674;SDS011;1347;42.122;24.746;2023-12-20T01:31:21;33.50;;;21.43;;
2674;SDS011;1347;42.122;24.746;2023-12-20T01:33:47;29.97;;;21.90;;
2674;SDS011;1347;42.122;24.746;2023-12-20T01:36:14;38.23;;;23.97;;
2674;SDS011;1347;42.122;24.746;2023-12-20T01:38:42;38.03;;;24.00;;
2674;SDS011;1347;42.122;24.746;2023-12-20T01:41:09;32.17;;;19.77;;
2674;SDS011;1347;42.122;24.746;2023-12-20T01:43:36;27.90;;;19.93;;
2674;SDS011;1347;42.122;24.746;2023-12-20T01:46:03;29.43;;;19.87;;
2674;SDS011;1347;42.122;24.746;2023-12-20T01:48:30;28.83;;;19.60;;
2674;SDS011;1347;42.122;24.746;2023-12-20T01:50:58;32.20;;;20.70;;
2674;SDS011;1347;42.122;24.746;2023-12-20T01:53:25;40.00;;;23.17;;
2674;SDS011;1347;42.122;24.746;2023-12-20T01:55:55;33.70;;;22.60;;
2674;SDS011;1347;42.122;24.746;2023-12-20T01:58:24;29.63;;;19.80;;
2674;SDS011;1347;42.122;24.746;2023-12-20T02:00:52;28.83;;;21.63;;
2674;SDS011;1347;42.122;24.746;2023-12-20T02:03:20;31.37;;;21.00;;
2674;SDS011;1347;42.122;24.746;2023-12-20T02:05:47;31.07;;;19.20;;
2674;SDS011;1347;42.122;24.746;2023-12-20T02:08:14;29.27;;;21.50;;
2674;SDS011;1347;42.122;24.746;2023-12-20T02:10:41;27.20;;;19.20;;
2674;SDS011;1347;42.122;24.746;2023-12-20T02:13:09;28.80;;;21.87;;
2674;SDS011;1347;42.122;24.746;2023-12-20T02:15:36;26.60;;;19.43;;
2674;SDS011;1347;42.122;24.746;2023-12-20T02:18:03;27.63;;;18.90;;
2674;SDS011;1347;42.122;24.746;2023-12-20T02:20:31;23.53;;;19.43;;
2674;SDS011;1347;42.122;24.746;2023-12-20T02:22:59;31.50;;;18.67;;
2674;SDS011;1347;42.122;24.746;2023-12-20T02:25:26;26.00;;;19.80;;
2674;SDS011;1347;42.122;24.746;2023-12-20T02:27:52;33.27;;;20.47;;
2674;SDS011;1347;42.122;24.746;2023-12-20T02:30:19;28.60;;;19.77;;
2674;SDS011;1347;42.122;24.746;2023-12-20T02:32:46;27.87;;;19.00;;
2674;SDS011;1347;42.122;24.746;2023-12-20T02:35:15;30.37;;;19.87;;
2674;SDS011;1347;42.122;24.746;2023-12-20T02:37:41;34.03;;;20.17;;
2674;SDS011;1347;42.122;24.746;2023-12-20T02:40:10;30.17;;;19.40;;
2674;SDS011;1347;42.122;24.746;2023-12-20T02:42:37;32.07;;;20.97;;
2674;SDS011;1347;42.122;24.746;2023-12-20T02:45:04;29.20;;;19.63;;
2674;SDS011;1347;42.122;24.746;2023-12-20T02:47:31;27.00;;;19.20;;
2674;SDS011;1347;42.122;24.746;2023-12-20T02:49:58;29.40;;;19.27;;
2674;SDS011;1347;42.122;24.746;2023-12-20T02:52:25;26.73;;;20.77;;
2674;SDS011;1347;42.122;24.746;2023-12-20T02:54:55;31.87;;;19.63;;
2674;SDS011;1347;42.122;24.746;2023-12-20T02:57:23;30.23;;;19.63;;
2674;SDS011;1347;42.122;24.746;2023-12-20T02:59:50;27.40;;;17.97;;
2674;SDS011;1347;42.122;24.746;2023-12-20T03:02:16;32.00;;;21.47;;
2674;SDS011;1347;42.122;24.746;2023-12-20T03:04:43;31.60;;;22.07;;
2674;SDS011;1347;42.122;24.746;2023-12-20T03:07:10;32.73;;;22.50;;
2674;SDS011;1347;42.122;24.746;2023-12-20T03:09:37;29.63;;;21.77;;
2674;SDS011;1347;42.122;24.746;2023-12-20T03:12:04;29.13;;;20.67;;
2674;SDS011;1347;42.122;24.746;2023-12-20T03:14:32;30.50;;;20.77;;
2674;SDS011;1347;42.122;24.746;2023-12-20T03:16:59;31.10;;;20.63;;
2674;SDS011;1347;42.122;24.746;2023-12-20T03:19:26;31.50;;;22.27;;
2674;SDS011;1347;42.122;24.746;2023-12-20T03:21:54;33.00;;;20.70;;
2674;SDS011;1347;42.122;24.746;2023-12-20T03:24:21;28.20;;;21.57;;
2674;SDS011;1347;42.122;24.746;2023-12-20T03:26:47;28.80;;;20.50;;
2674;SDS011;1347;42.122;24.746;2023-12-20T03:29:14;33.27;;;21.07;;
2674;SDS011;1347;42.122;24.746;2023-12-20T03:31:42;33.10;;;22.00;;
2674;SDS011;1347;42.122;24.746;2023-12-20T03:34:09;30.33;;;22.13;;
2674;SDS011;1347;42.122;24.746;2023-12-20T03:36:36;31.33;;;22.20;;
2674;SDS011;1347;42.122;24.746;2023-12-20T03:39:03;31.00;;;21.77;;
2674;SDS011;1347;42.122;24.746;2023-12-20T03:41:30;37.20;;;23.70;;
2674;SDS011;1347;42.122;24.746;2023-12-20T03:43:57;32.17;;;21.27;;
2674;SDS011;1347;42.122;24.746;2023-12-20T03:46:24;39.57;;;24.67;;
2674;SDS011;1347;42.122;24.746;2023-12-20T03:48:52;30.83;;;20.40;;
2674;SDS011;1347;42.122;24.746;2023-12-20T03:51:19;28.90;;;19.73;;
2674;SDS011;1347;42.122;24.746;2023-12-20T03:53:46;30.50;;;20.77;;
2674;SDS011;1347;42.122;24.746;2023-12-20T03:56:13;33.17;;;21.43;;
2674;SDS011;1347;42.122;24.746;2023-12-20T03:58:39;34.30;;;20.63;;
2674;SDS011;1347;42.122;24.746;2023-12-20T04:01:09;31.00;;;21.07;;
2674;SDS011;1347;42.122;24.746;2023-12-20T04:03:37;29.33;;;20.50;;
2674;SDS011;1347;42.122;24.746;2023-12-20T04:06:06;32.20;;;21.23;;
2674;SDS011;1347;42.122;24.746;2023-12-20T04:08:32;30.33;;;18.93;;
2674;SDS011;1347;42.122;24.746;2023-12-20T04:10:59;26.77;;;19.53;;
2674;SDS011;1347;42.122;24.746;2023-12-20T04:13:26;29.43;;;20.47;;
2674;SDS011;1347;42.122;24.746;2023-12-20T04:15:53;27.70;;;19.27;;
2674;SDS011;1347;42.122;24.746;2023-12-20T04:18:20;32.40;;;21.80;;
2674;SDS011;1347;42.122;24.746;2023-12-20T04:20:46;33.20;;;21.87;;
2674;SDS011;1347;42.122;24.746;2023-12-20T04:23:15;29.90;;;21.30;;
2674;SDS011;1347;42.122;24.746;2023-12-20T04:25:42;33.07;;;21.33;;
2674;SDS011;1347;42.122;24.746;2023-12-20T04:28:09;30.57;;;20.77;;
2674;SDS011;1347;42.122;24.746;2023-12-20T04:30:36;30.33;;;21.00;;
2674;SDS011;1347;42.122;24.746;2023-12-20T04:33:03;29.30;;;21.83;;
2674;SDS011;1347;42.122;24.746;2023-12-20T04:35:30;22.60;;;18.10;;
2674;SDS011;1347;42.122;24.746;2023-12-20T04:37:57;32.40;;;21.40;;
2674;SDS011;1347;42.122;24.746;2023-12-20T04:40:25;30.03;;;22.20;;
2674;SDS011;1347;42.122;24.746;2023-12-20T04:42:52;32.80;;;21.57;;
2674;SDS011;1347;42.122;24.746;2023-12-20T04:45:18;31.23;;;21.97;;
2674;SDS011;1347;42.122;24.746;2023-12-20T04:47:45;31.47;;;22.10;;
2674;SDS011;1347;42.122;24.746;2023-12-20T04:50:13;29.03;;;21.70;;
2674;SDS011;1347;42.122;24.746;2023-12-20T04:52:40;39.47;;;25.70;;
2674;SDS011;1347;42.122;24.746;2023-12-20T04:55:07;33.87;;;23.97;;
2674;SDS011;1347;42.122;24.746;2023-12-20T04:57:35;35.40;;;24.20;;
2674;SDS011;1347;42.122;24.746;2023-12-20T05:00:02;32.20;;;23.40;;
2674;SDS011;1347;42.122;24.746;2023-12-20T05:02:29;62.87;;;25.20;;
2674;SDS011;1347;42.122;24.746;2023-12-20T05:04:56;36.20;;;26.67;;
2674;SDS011;1347;42.122;24.746;2023-12-20T05:07:23;33.67;;;25.67;;
2674;SDS011;1347;42.122;24.746;2023-12-20T05:09:50;47.77;;;27.43;;
2674;SDS011;1347;42.122;24.746;2023-12-20T05:12:17;40.20;;;27.53;;
2674;SDS011;1347;42.122;24.746;2023-12-20T05:14:45;37.47;;;25.97;;
2674;SDS011;1347;42.122;24.746;2023-12-20T05:17:12;31.10;;;25.23;;
2674;SDS011;1347;42.122;24.746;2023-12-20T05:19:39;38.17;;;24.17;;
2674;SDS011;1347;42.122;24.746;2023-12-20T05:22:06;35.50;;;24.50;;
2674;SDS011;1347;42.122;24.746;2023-12-20T05:24:33;36.37;;;23.43;;
2674;SDS011;1347;42.122;24.746;2023-12-20T05:27:00;38.17;;;23.90;;
2674;SDS011;1347;42.122;24.746;2023-12-20T05:29:26;34.73;;;24.53;;
2674;SDS011;1347;42.122;24.746;2023-12-20T05:31:55;32.87;;;21.90;;
2674;SDS011;1347;42.122;24.746;2023-12-20T05:34:21;34.37;;;23.20;;
2674;SDS011;1347;42.122;24.746;2023-12-20T05:36:48;37.10;;;27.60;;
2674;SDS011;1347;42.122;24.746;2023-12-20T05:39:15;39.20;;;28.43;;
2674;SDS011;1347;42.122;24.746;2023-12-20T05:41:42;36.40;;;24.90;;
2674;SDS011;1347;42.122;24.746;2023-12-20T05:44:09;34.27;;;24.03;;
2674;SDS011;1347;42.122;24.746;2023-12-20T05:46:36;30.90;;;24.53;;
2674;SDS011;1347;42.122;24.746;2023-12-20T05:49:04;32.27;;;22.43;;
2674;SDS011;1347;42.122;24.746;2023-12-20T05:51:31;35.47;;;24.70;;
2674;SDS011;1347;42.122;24.746;2023-12-20T05:53:57;33.30;;;22.50;;
2674;SDS011;1347;42.122;24.746;2023-12-20T05:56:24;34.27;;;25.00;;
2674;SDS011;1347;42.122;24.746;2023-12-20T05:58:51;33.27;;;24.33;;
2674;SDS011;1347;42.122;24.746;2023-12-20T06:01:18;37.77;;;24.30;;
2674;SDS011;1347;42.122;24.746;2023-12-20T06:03:45;41.90;;;27.80;;
2674;SDS011;1347;42.122;24.746;2023-12-20T06:06:13;36.00;;;26.00;;
2674;SDS011;1347;42.122;24.746;2023-12-20T06:08:40;37.17;;;27.47;;
2674;SDS011;1347;42.122;24.746;2023-12-20T06:11:08;39.40;;;26.30;;
2674;SDS011;1347;42.122;24.746;2023-12-20T06:13:35;42.60;;;30.27;;
2674;SDS011;1347;42.122;24.746;2023-12-20T06:16:02;54.80;;;33.47;;
2674;SDS011;1347;42.122;24.746;2023-12-20T06:18:31;43.67;;;31.77;;
2674;SDS011;1347;42.122;24.746;2023-12-20T06:20:58;47.87;;;30.07;;
2674;SDS011;1347;42.122;24.746;2023-12-20T06:23:26;42.13;;;30.10;;
2674;SDS011;1347;42.122;24.746;2023-12-20T06:25:54;34.13;;;24.10;;
2674;SDS011;1347;42.122;24.746;2023-12-20T06:28:21;45.80;;;28.80;;
2674;SDS011;1347;42.122;24.746;2023-12-20T06:30:48;36.73;;;23.60;;
2674;SDS011;1347;42.122;24.746;2023-12-20T06:33:15;30.63;;;21.10;;
2674;SDS011;1347;42.122;24.746;2023-12-20T06:35:43;30.00;;;21.80;;
2674;SDS011;1347;42.122;24.746;2023-12-20T06:38:10;25.53;;;19.30;;
2674;SDS011;1347;42.122;24.746;2023-12-20T06:40:39;37.03;;;22.17;;
2674;SDS011;1347;42.122;24.746;2023-12-20T06:43:05;36.87;;;23.83;;
2674;SDS011;1347;42.122;24.746;2023-12-20T06:45:32;30.20;;;21.50;;
2674;SDS011;1347;42.122;24.746;2023-12-20T06:47:59;28.37;;;22.00;;
2674;SDS011;1347;42.122;24.746;2023-12-20T06:50:26;37.37;;;23.20;;
2674;SDS011;1347;42.122;24.746;2023-12-20T06:52:53;29.30;;;21.20;;
2674;SDS011;1347;42.122;24.746;2023-12-20T06:55:20;28.10;;;21.50;;
2674;SDS011;1347;42.122;24.746;2023-12-20T06:57:48;31.33;;;21.17;;
2674;SDS011;1347;42.122;24.746;2023-12-20T07:00:16;32.83;;;23.37;;
2674;SDS011;1347;42.122;24.746;2023-12-20T07:02:45;32.50;;;24.00;;
2674;SDS011;1347;42.122;24.746;2023-12-20T07:05:12;31.50;;;22.13;;
2674;SDS011;1347;42.122;24.746;2023-12-20T07:07:44;35.57;;;25.20;;
2674;SDS011;1347;42.122;24.746;2023-12-20T07:10:11;32.30;;;22.30;;
2674;SDS011;1347;42.122;24.746;2023-12-20T07:12:38;32.43;;;22.93;;
2674;SDS011;1347;42.122;24.746;2023-12-20T07:15:07;29.83;;;23.77;;
2674;SDS011;1347;42.122;24.746;2023-12-20T07:17:34;32.73;;;22.77;;
2674;SDS011;1347;42.122;24.746;2023-12-20T07:20:01;24.80;;;19.23;;
2674;SDS011;1347;42.122;24.746;2023-12-20T07:22:29;27.07;;;21.90;;
2674;SDS011;1347;42.122;24.746;2023-12-20T07:24:56;26.43;;;20.23;;
2674;SDS011;1347;42.122;24.746;2023-12-20T07:27:23;28.90;;;21.00;;
2674;SDS011;1347;42.122;24.746;2023-12-20T07:29:50;25.40;;;21.63;;
2674;SDS011;1347;42.122;24.746;2023-12-20T07:32:19;29.53;;;21.17;;
2674;SDS011;1347;42.122;24.746;2023-12-20T07:34:45;31.57;;;24.20;;
2674;SDS011;1347;42.122;24.746;2023-12-20T07:37:12;41.73;;;25.57;;
2674;SDS011;1347;42.122;24.746;2023-12-20T07:39:39;27.83;;;19.70;;
2674;SDS011;1347;42.122;24.746;2023-12-20T07:42:06;36.37;;;22.13;;
2674;SDS011;1347;42.122;24.746;2023-12-20T07:44:34;30.80;;;20.70;;
2674;SDS011;1347;42.122;24.746;2023-12-20T07:47:01;29.80;;;20.17;;
2674;SDS011;1347;42.122;24.746;2023-12-20T07:49:29;25.23;;;17.93;;
2674;SDS011;1347;42.122;24.746;2023-12-20T07:51:57;26.63;;;19.00;;
2674;SDS011;1347;42.122;24.746;2023-12-20T07:54:23;22.27;;;17.30;;
2674;SDS011;1347;42.122;24.746;2023-12-20T07:56:50;22.67;;;18.53;;
2674;SDS011;1347;42.122;24.746;2023-12-20T07:59:17;21.57;;;18.00;;
2674;SDS011;1347;42.122;24.746;2023-12-20T08:01:44;20.93;;;18.83;;
2674;SDS011;1347;42.122;24.746;2023-12-20T08:04:11;21.67;;;19.17;;
2674;SDS011;1347;42.122;24.746;2023-12-20T08:06:39;21.60;;;17.93;;
2674;SDS011;1347;42.122;24.746;2023-12-20T08:09:06;22.93;;;20.60;;
2674;SDS011;1347;42.122;24.746;2023-12-20T08:11:36;22.67;;;17.90;;
2674;SDS011;1347;42.122;24.746;2023-12-20T08:14:03;21.23;;;19.03;;
2674;SDS011;1347;42.122;24.746;2023-12-20T08:16:30;20.77;;;18.67;;
2674;SDS011;1347;42.122;24.746;2023-12-20T08:18:56;19.97;;;17.87;;
2674;SDS011;1347;42.122;24.746;2023-12-20T08:21:23;21.30;;;18.97;;
2674;SDS011;1347;42.122;24.746;2023-12-20T08:23:51;27.87;;;21.60;;
2674;SDS011;1347;42.122;24.746;2023-12-20T08:26:18;23.77;;;21.27;;
2674;SDS011;1347;42.122;24.746;2023-12-20T08:28:47;21.47;;;19.23;;
2674;SDS011;1347;42.122;24.746;2023-12-20T08:31:15;21.70;;;19.60;;
2674;SDS011;1347;42.122;24.746;2023-12-20T08:33:43;21.27;;;19.30;;
2674;SDS011;1347;42.122;24.746;2023-12-20T08:36:10;22.30;;;20.20;;
2674;SDS011;1347;42.122;24.746;2023-12-20T08:38:36;21.13;;;19.00;;
2674;SDS011;1347;42.122;24.746;2023-12-20T08:41:05;25.17;;;22.00;;
2674;SDS011;1347;42.122;24.746;2023-12-20T08:43:33;22.40;;;20.10;;
2674;SDS011;1347;42.122;24.746;2023-12-20T08:46:01;19.47;;;17.40;;
2674;SDS011;1347;42.122;24.746;2023-12-20T08:48:28;20.00;;;17.83;;
2674;SDS011;1347;42.122;24.746;2023-12-20T08:50:55;24.43;;;20.30;;
2674;SDS011;1347;42.122;24.746;2023-12-20T08:53:21;23.47;;;21.17;;
2674;SDS011;1347;42.122;24.746;2023-12-20T08:55:48;27.53;;;23.60;;
2674;SDS011;1347;42.122;24.746;2023-12-20T08:58:17;26.60;;;21.20;;
2674;SDS011;1347;42.122;24.746;2023-12-20T09:00:44;24.00;;;20.50;;
2674;SDS011;1347;42.122;24.746;2023-12-20T09:03:11;25.27;;;20.60;;
2674;SDS011;1347;42.122;24.746;2023-12-20T09:05:38;21.60;;;19.37;;
2674;SDS011;1347;42.122;24.746;2023-12-20T09:08:05;23.23;;;20.17;;
2674;SDS011;1347;42.122;24.746;2023-12-20T09:10:35;19.33;;;16.53;;
2674;SDS011;1347;42.122;24.746;2023-12-20T09:13:02;17.10;;;15.33;;
2674;SDS011;1347;42.122;24.746;2023-12-20T09:15:31;18.60;;;15.57;;
2674;SDS011;1347;42.122;24.746;2023-12-20T09:17:59;18.10;;;16.30;;
2674;SDS011;1347;42.122;24.746;2023-12-20T09:20:26;18.63;;;16.83;;
2674;SDS011;1347;42.122;24.746;2023-12-20T09:22:53;18.57;;;16.57;;
2674;SDS011;1347;42.122;24.746;2023-12-20T09:25:20;18.87;;;16.90;;
2674;SDS011;1347;42.122;24.746;2023-12-20T09:27:48;19.27;;;16.30;;
2674;SDS011;1347;42.122;24.746;2023-12-20T09:30:15;21.60;;;17.70;;
2674;SDS011;1347;42.122;24.746;2023-12-20T09:32:43;19.30;;;17.30;;
2674;SDS011;1347;42.122;24.746;2023-12-20T09:35:11;21.13;;;17.77;;
2674;SDS011;1347;42.122;24.746;2023-12-20T09:37:38;23.33;;;18.40;;
2674;SDS011;1347;42.122;24.746;2023-12-20T09:40:06;25.17;;;16.47;;
2674;SDS011;1347;42.122;24.746;2023-12-20T09:42:38;21.53;;;19.10;;
2674;SDS011;1347;42.122;24.746;2023-12-20T09:45:14;18.60;;;15.87;;
2674;SDS011;1347;42.122;24.746;2023-12-20T09:47:45;18.60;;;15.10;;
2674;SDS011;1347;42.122;24.746;2023-12-20T09:50:13;14.57;;;13.07;;
2674;SDS011;1347;42.122;24.746;2023-12-20T09:52:40;19.97;;;15.23;;
2674;SDS011;1347;42.122;24.746;2023-12-20T09:55:09;17.50;;;14.40;;
2674;SDS011;1347;42.122;24.746;2023-12-20T09:57:36;20.60;;;15.73;;
2674;SDS011;1347;42.122;24.746;2023-12-20T10:00:04;18.27;;;15.80;;
2674;SDS011;1347;42.122;24.746;2023-12-20T10:02:32;17.77;;;14.40;;
2674;SDS011;1347;42.122;24.746;2023-12-20T10:05:02;23.23;;;14.20;;
2674;SDS011;1347;42.122;24.746;2023-12-20T10:07:34;15.03;;;12.90;;
2674;SDS011;1347;42.122;24.746;2023-12-20T10:10:01;13.53;;;11.33;;
2674;SDS011;1347;42.122;24.746;2023-12-20T10:12:28;18.00;;;14.50;;
2674;SDS011;1347;42.122;24.746;2023-12-20T10:14:56;19.00;;;13.70;;
2674;SDS011;1347;42.122;24.746;2023-12-20T10:17:25;18.67;;;15.57;;
2674;SDS011;1347;42.122;24.746;2023-12-20T10:19:55;16.97;;;14.90;;
2674;SDS011;1347;42.122;24.746;2023-12-20T10:22:23;16.40;;;14.70;;
2674;SDS011;1347;42.122;24.746;2023-12-20T10:24:50;18.33;;;15.67;;
2674;SDS011;1347;42.122;24.746;2023-12-20T10:27:18;19.33;;;16.63;;
2674;SDS011;1347;42.122;24.746;2023-12-20T10:29:45;20.60;;;15.60;;
2674;SDS011;1347;42.122;24.746;2023-12-20T10:32:22;21.23;;;16.93;;
2674;SDS011;1347;42.122;24.746;2023-12-20T10:34:50;19.77;;;17.27;;
2674;SDS011;1347;42.122;24.746;2023-12-20T10:37:18;18.87;;;16.77;;
2674;SDS011;1347;42.122;24.746;2023-12-20T10:39:47;20.37;;;16.40;;
2674;SDS011;1347;42.122;24.746;2023-12-20T10:42:17;22.23;;;17.53;;
2674;SDS011;1347;42.122;24.746;2023-12-20T10:44:46;23.40;;;16.80;;
2674;SDS011;1347;42.122;24.746;2023-12-20T10:47:13;21.60;;;15.60;;
2674;SDS011;1347;42.122;24.746;2023-12-20T10:49:40;23.63;;;15.50;;
2674;SDS011;1347;42.122;24.746;2023-12-20T10:52:08;18.50;;;15.90;;
2674;SDS011;1347;42.122;24.746;2023-12-20T10:54:37;18.47;;;14.83;;
2674;SDS011;1347;42.122;24.746;2023-12-20T10:57:06;20.57;;;15.60;;
2674;SDS011;1347;42.122;24.746;2023-12-20T10:59:33;20.10;;;15.40;;
2674;SDS011;1347;42.122;24.746;2023-12-20T11:02:03;23.17;;;17.80;;
2674;SDS011;1347;42.122;24.746;2023-12-20T11:04:35;17.03;;;13.73;;
2674;SDS011;1347;42.122;24.746;2023-12-20T11:07:07;22.23;;;16.30;;
2674;SDS011;1347;42.122;24.746;2023-12-20T11:09:45;22.00;;;16.27;;
2674;SDS011;1347;42.122;24.746;2023-12-20T11:12:25;19.90;;;14.57;;
2674;SDS011;1347;42.122;24.746;2023-12-20T11:14:59;27.07;;;16.50;;
2674;SDS011;1347;42.122;24.746;2023-12-20T11:17:29;22.40;;;15.17;;
2674;SDS011;1347;42.122;24.746;2023-12-20T11:20:04;36.50;;;16.80;;
2674;SDS011;1347;42.122;24.746;2023-12-20T11:22:33;17.50;;;14.73;;
2674;SDS011;1347;42.122;24.746;2023-12-20T11:25:03;18.47;;;14.13;;
2674;SDS011;1347;42.122;24.746;2023-12-20T11:27:35;17.10;;;11.63;;
2674;SDS011;1347;42.122;24.746;2023-12-20T11:30:03;18.03;;;11.93;;
2674;SDS011;1347;42.122;24.746;2023-12-20T11:32:33;13.97;;;11.30;;
2674;SDS011;1347;42.122;24.746;2023-12-20T11:35:01;15.50;;;12.40;;
2674;SDS011;1347;42.122;24.746;2023-12-20T11:37:43;17.33;;;12.00;;
2674;SDS011;1347;42.122;24.746;2023-12-20T11:40:13;21.77;;;12.17;;
2674;SDS011;1347;42.122;24.746;2023-12-20T11:42:43;19.50;;;12.83;;
2674;SDS011;1347;42.122;24.746;2023-12-20T11:45:13;17.07;;;12.27;;
2674;SDS011;1347;42.122;24.746;2023-12-20T11:47:42;18.63;;;12.67;;
2674;SDS011;1347;42.122;24.746;2023-12-20T11:50:11;15.53;;;11.63;;
2674;SDS011;1347;42.122;24.746;2023-12-20T11:52:38;16.43;;;12.20;;
2674;SDS011;1347;42.122;24.746;2023-12-20T11:55:05;15.93;;;11.50;;
2674;SDS011;1347;42.122;24.746;2023-12-20T11:57:33;16.80;;;13.50;;
2674;SDS011;1347;42.122;24.746;2023-12-20T12:00:01;15.67;;;12.80;;
2674;SDS011;1347;42.122;24.746;2023-12-20T12:02:29;19.97;;;14.53;;
2674;SDS011;1347;42.122;24.746;2023-12-20T12:04:56;23.73;;;14.30;;
2674;SDS011;1347;42.122;24.746;2023-12-20T12:07:23;19.37;;;13.67;;
2674;SDS011;1347;42.122;24.746;2023-12-20T12:09:51;19.93;;;14.80;;
2674;SDS011;1347;42.122;24.746;2023-12-20T12:12:17;22.37;;;15.23;;
2674;SDS011;1347;42.122;24.746;2023-12-20T12:14:46;20.20;;;15.23;;
2674;SDS011;1347;42.122;24.746;2023-12-20T12:17:14;18.60;;;14.67;;
2674;SDS011;1347;42.122;24.746;2023-12-20T12:19:42;34.07;;;17.80;;
2674;SDS011;1347;42.122;24.746;2023-12-20T12:22:10;25.53;;;16.30;;
2674;SDS011;1347;42.122;24.746;2023-12-20T12:24:39;32.10;;;17.43;;
2674;SDS011;1347;42.122;24.746;2023-12-20T12:27:06;26.00;;;17.73;;
2674;SDS011;1347;42.122;24.746;2023-12-20T12:29:33;26.50;;;17.83;;
2674;SDS011;1347;42.122;24.746;2023-12-20T12:32:01;22.07;;;16.27;;
2674;SDS011;1347;42.122;24.746;2023-12-20T12:34:32;19.70;;;15.60;;
2674;SDS011;1347;42.122;24.746;2023-12-20T12:37:00;23.17;;;16.30;;
2674;SDS011;1347;42.122;24.746;2023-12-20T12:39:27;23.73;;;16.37;;
2674;SDS011;1347;42.122;24.746;2023-12-20T12:41:55;27.73;;;16.67;;
2674;SDS011;1347;42.122;24.746;2023-12-20T12:44:22;28.70;;;16.67;;
2674;SDS011;1347;42.122;24.746;2023-12-20T12:46:50;22.30;;;16.53;;
2674;SDS011;1347;42.122;24.746;2023-12-20T12:49:18;28.13;;;16.17;;
2674;SDS011;1347;42.122;24.746;2023-12-20T12:51:47;24.57;;;17.07;;
2674;SDS011;1347;42.122;24.746;2023-12-20T12:54:14;23.57;;;15.80;;
2674;SDS011;1347;42.122;24.746;2023-12-20T12:56:43;32.87;;;17.83;;
2674;SDS011;1347;42.122;24.746;2023-12-20T12:59:12;27.97;;;17.63;;
2674;SDS011;1347;42.122;24.746;2023-12-20T13:01:39;27.90;;;15.17;;
2674;SDS011;1347;42.122;24.746;2023-12-20T13:04:05;20.17;;;15.60;;
2674;SDS011;1347;42.122;24.746;2023-12-20T13:06:36;18.80;;;15.67;;
2674;SDS011;1347;42.122;24.746;2023-12-20T13:09:04;25.87;;;17.37;;
2674;SDS011;1347;42.122;24.746;2023-12-20T13:11:31;25.63;;;17.67;;
2674;SDS011;1347;42.122;24.746;2023-12-20T13:14:00;20.80;;;16.50;;
2674;SDS011;1347;42.122;24.746;2023-12-20T13:16:28;24.57;;;15.40;;
2674;SDS011;1347;42.122;24.746;2023-12-20T13:18:55;26.73;;;16.20;;
2674;SDS011;1347;42.122;24.746;2023-12-20T13:21:22;21.10;;;15.17;;
2674;SDS011;1347;42.122;24.746;2023-12-20T13:23:49;23.67;;;17.20;;
2674;SDS011;1347;42.122;24.746;2023-12-20T13:26:18;21.70;;;16.87;;
2674;SDS011;1347;42.122;24.746;2023-12-20T13:28:45;24.93;;;17.63;;
2674;SDS011;1347;42.122;24.746;2023-12-20T13:31:12;19.90;;;17.07;;
2674;SDS011;1347;42.122;24.746;2023-12-20T13:33:39;25.23;;;17.70;;
2674;SDS011;1347;42.122;24.746;2023-12-20T13:36:07;20.50;;;16.67;;
2674;SDS011;1347;42.122;24.746;2023-12-20T13:38:34;26.70;;;17.63;;
2674;SDS011;1347;42.122;24.746;2023-12-20T13:41:01;21.77;;;17.47;;
2674;SDS011;1347;42.122;24.746;2023-12-20T13:43:31;25.07;;;19.80;;
2674;SDS011;1347;42.122;24.746;2023-12-20T13:45:57;28.37;;;19.50;;
2674;SDS011;1347;42.122;24.746;2023-12-20T13:48:24;23.70;;;18.63;;
2674;SDS011;1347;42.122;24.746;2023-12-20T13:50:51;24.30;;;19.20;;
2674;SDS011;1347;42.122;24.746;2023-12-20T13:53:19;33.57;;;17.83;;
2674;SDS011;1347;42.122;24.746;2023-12-20T13:55:46;28.83;;;21.97;;
2674;SDS011;1347;42.122;24.746;2023-12-20T13:58:13;34.00;;;23.43;;
2674;SDS011;1347;42.122;24.746;2023-12-20T14:00:41;37.53;;;19.43;;
2674;SDS011;1347;42.122;24.746;2023-12-20T14:03:08;26.63;;;19.57;;
2674;SDS011;1347;42.122;24.746;2023-12-20T14:05:35;29.57;;;22.47;;
2674;SDS011;1347;42.122;24.746;2023-12-20T14:08:02;29.83;;;20.50;;
2674;SDS011;1347;42.122;24.746;2023-12-20T14:10:29;29.67;;;22.37;;
2674;SDS011;1347;42.122;24.746;2023-12-20T14:12:56;28.63;;;22.03;;
2674;SDS011;1347;42.122;24.746;2023-12-20T14:15:23;33.17;;;22.50;;
2674;SDS011;1347;42.122;24.746;2023-12-20T14:17:52;32.90;;;22.63;;
2674;SDS011;1347;42.122;24.746;2023-12-20T14:20:19;36.13;;;24.57;;
2674;SDS011;1347;42.122;24.746;2023-12-20T14:22:46;40.13;;;26.87;;
2674;SDS011;1347;42.122;24.746;2023-12-20T14:25:14;42.50;;;26.17;;
2674;SDS011;1347;42.122;24.746;2023-12-20T14:27:41;34.83;;;26.53;;
2674;SDS011;1347;42.122;24.746;2023-12-20T14:30:09;41.00;;;26.50;;
2674;SDS011;1347;42.122;24.746;2023-12-20T14:32:37;35.30;;;25.43;;
2674;SDS011;1347;42.122;24.746;2023-12-20T14:35:06;41.97;;;27.77;;